sensor_id;sensor_type;location;lat;lon;timestamp;P1;durP1;ratioP1;P2;durP2;ratioP2
21258;SDS011;10787;53.364;-1.480;2023-03-20T00:00:35;11.80;;;3.50;;
21258;SDS011;10787;53.364;-1.480;2023-03-20T00:03:23;9.60;;;3.90;;
21258;SDS011;10787;53.364;-1.480;2023-03-20T00:06:16;16.43;;;4.43;;
21258;SDS011;10787;53.364;-1.480;2023-03-20T00:09:07;8.73;;;4.00;;
21258;SDS011;10787;53.364;-1.480;2023-03-20T00:11:52;8.23;;;3.90;;
21258;SDS011;10787;53.364;-1.480;2023-03-20T00:14:38;12.07;;;4.07;;
21258;SDS011;10787;53.364;-1.480;2023-03-20T00:17:23;9.30;;;4.40;;
21258;SDS011;10787;53.364;-1.480;2023-03-20T00:20:12;12.63;;;4.30;;
21258;SDS011;10787;53.364;-1.480;2023-03-20T00:22:58;9.63;;;3.83;;
21258;SDS011;10787;53.364;-1.480;2023-03-20T00:25:43;8.57;;;3.83;;
21258;SDS011;10787;53.364;-1.480;2023-03-20T00:28:42;7.83;;;3.87;;
21258;SDS011;10787;53.364;-1.480;2023-03-20T00:31:29;9.20;;;4.07;;
21258;SDS011;10787;53.364;-1.480;2023-03-20T00:34:18;8.17;;;4.10;;
21258;SDS011;10787;53.364;-1.480;2023-03-20T00:37:04;6.30;;;3.60;;
21258;SDS011;10787;53.364;-1.480;2023-03-20T00:39:49;6.90;;;3.80;;
21258;SDS011;10787;53.364;-1.480;2023-03-20T00:42:33;8.07;;;3.83;;
21258;SDS011;10787;53.364;-1.480;2023-03-20T00:45:19;8.20;;;4.03;;
21258;SDS011;10787;53.364;-1.480;2023-03-20T00:48:04;9.13;;;4.10;;
21258;SDS011;10787;53.364;-1.480;2023-03-20T00:50:49;8.03;;;3.90;;
21258;SDS011;10787;53.364;-1.480;2023-03-20T00:53:33;10.27;;;4.53;;
21258;SDS011;10787;53.364;-1.480;2023-03-20T00:56:34;7.57;;;4.17;;
21258;SDS011;10787;53.364;-1.480;2023-03-20T00:59:21;10.33;;;4.30;;
21258;SDS011;10787;53.364;-1.480;2023-03-20T01:02:08;6.73;;;4.03;;
21258;SDS011;10787;53.364;-1.480;2023-03-20T01:04:54;6.60;;;4.07;;
21258;SDS011;10787;53.364;-1.480;2023-03-20T01:07:38;9.27;;;4.30;;
21258;SDS011;10787;53.364;-1.480;2023-03-20T01:10:24;6.00;;;4.33;;
21258;SDS011;10787;53.364;-1.480;2023-03-20T01:13:14;7.37;;;3.93;;
21258;SDS011;10787;53.364;-1.480;2023-03-20T01:16:03;6.67;;;3.50;;
21258;SDS011;10787;53.364;-1.480;2023-03-20T01:18:48;6.00;;;3.07;;
21258;SDS011;10787;53.364;-1.480;2023-03-20T01:21:33;4.03;;;2.53;;
21258;SDS011;10787;53.364;-1.480;2023-03-20T01:24:17;8.20;;;2.43;;
21258;SDS011;10787;53.364;-1.480;2023-03-20T01:27:02;5.13;;;2.60;;
21258;SDS011;10787;53.364;-1.480;2023-03-20T01:29:48;4.80;;;2.30;;
21258;SDS011;10787;53.364;-1.480;2023-03-20T01:32:32;3.53;;;2.20;;
21258;SDS011;10787;53.364;-1.480;2023-03-20T01:35:17;4.73;;;2.00;;
21258;SDS011;10787;53.364;-1.480;2023-03-20T01:38:09;2.80;;;1.70;;
21258;SDS011;10787;53.364;-1.480;2023-03-20T01:41:16;3.33;;;1.60;;
21258;SDS011;10787;53.364;-1.480;2023-03-20T01:44:08;3.77;;;1.50;;
21258;SDS011;10787;53.364;-1.480;2023-03-20T01:47:13;3.07;;;1.40;;
21258;SDS011;10787;53.364;-1.480;2023-03-20T01:53:26;4.23;;;1.73;;
21258;SDS011;10787;53.364;-1.480;2023-03-20T01:56:13;2.30;;;1.70;;
21258;SDS011;10787;53.364;-1.480;2023-03-20T01:59:11;3.43;;;2.00;;
21258;SDS011;10787;53.364;-1.480;2023-03-20T02:02:04;3.60;;;2.27;;
21258;SDS011;10787;53.364;-1.480;2023-03-20T02:04:50;4.00;;;2.23;;
21258;SDS011;10787;53.364;-1.480;2023-03-20T02:07:42;4.27;;;2.07;;
21258;SDS011;10787;53.364;-1.480;2023-03-20T02:10:32;2.87;;;1.93;;
21258;SDS011;10787;53.364;-1.480;2023-03-20T02:13:17;4.13;;;2.00;;
21258;SDS011;10787;53.364;-1.480;2023-03-20T02:16:06;2.90;;;2.00;;
21258;SDS011;10787;53.364;-1.480;2023-03-20T02:18:57;4.97;;;2.20;;
21258;SDS011;10787;53.364;-1.480;2023-03-20T02:40:32;4.17;;;2.53;;
21258;SDS011;10787;53.364;-1.480;2023-03-20T02:46:45;4.73;;;2.47;;
21258;SDS011;10787;53.364;-1.480;2023-03-20T02:49:39;3.77;;;2.10;;
21258;SDS011;10787;53.364;-1.480;2023-03-20T02:58:37;3.40;;;2.17;;
21258;SDS011;10787;53.364;-1.480;2023-03-20T03:01:30;3.33;;;2.30;;
21258;SDS011;10787;53.364;-1.480;2023-03-20T03:04:25;2.67;;;2.10;;
21258;SDS011;10787;53.364;-1.480;2023-03-20T03:07:12;2.63;;;1.90;;
21258;SDS011;10787;53.364;-1.480;2023-03-20T03:09:59;3.30;;;2.00;;
21258;SDS011;10787;53.364;-1.480;2023-03-20T03:12:50;3.60;;;1.70;;
21258;SDS011;10787;53.364;-1.480;2023-03-20T03:15:38;2.53;;;1.57;;
21258;SDS011;10787;53.364;-1.480;2023-03-20T03:18:28;3.60;;;1.77;;
21258;SDS011;10787;53.364;-1.480;2023-03-20T03:21:16;2.47;;;1.50;;
21258;SDS011;10787;53.364;-1.480;2023-03-20T03:24:02;3.07;;;1.60;;
21258;SDS011;10787;53.364;-1.480;2023-03-20T03:26:47;2.30;;;1.40;;
21258;SDS011;10787;53.364;-1.480;2023-03-20T03:29:35;2.40;;;1.53;;
21258;SDS011;10787;53.364;-1.480;2023-03-20T03:32:24;3.03;;;1.70;;
21258;SDS011;10787;53.364;-1.480;2023-03-20T03:35:14;2.37;;;1.47;;
21258;SDS011;10787;53.364;-1.480;2023-03-20T03:44:26;3.53;;;1.47;;
21258;SDS011;10787;53.364;-1.480;2023-03-20T03:47:34;3.30;;;1.30;;
21258;SDS011;10787;53.364;-1.480;2023-03-20T03:50:23;3.23;;;1.43;;
21258;SDS011;10787;53.364;-1.480;2023-03-20T03:53:15;2.40;;;1.30;;
21258;SDS011;10787;53.364;-1.480;2023-03-20T03:56:05;3.07;;;1.60;;
21258;SDS011;10787;53.364;-1.480;2023-03-20T03:58:55;4.33;;;1.40;;
21258;SDS011;10787;53.364;-1.480;2023-03-20T04:01:44;4.07;;;1.70;;
21258;SDS011;10787;53.364;-1.480;2023-03-20T04:04:31;4.77;;;1.80;;
21258;SDS011;10787;53.364;-1.480;2023-03-20T04:07:16;3.23;;;1.80;;
21258;SDS011;10787;53.364;-1.480;2023-03-20T04:10:01;6.30;;;1.70;;
21258;SDS011;10787;53.364;-1.480;2023-03-20T04:12:46;4.10;;;1.67;;
21258;SDS011;10787;53.364;-1.480;2023-03-20T04:15:31;4.90;;;2.07;;
21258;SDS011;10787;53.364;-1.480;2023-03-20T04:18:15;4.50;;;1.80;;
21258;SDS011;10787;53.364;-1.480;2023-03-20T04:21:00;5.17;;;2.07;;
21258;SDS011;10787;53.364;-1.480;2023-03-20T04:23:44;5.30;;;1.83;;
21258;SDS011;10787;53.364;-1.480;2023-03-20T04:26:29;4.37;;;1.73;;
21258;SDS011;10787;53.364;-1.480;2023-03-20T04:29:14;3.40;;;1.80;;
21258;SDS011;10787;53.364;-1.480;2023-03-20T04:31:58;4.23;;;2.07;;
21258;SDS011;10787;53.364;-1.480;2023-03-20T04:34:42;3.33;;;2.00;;
21258;SDS011;10787;53.364;-1.480;2023-03-20T04:37:26;6.00;;;2.13;;
21258;SDS011;10787;53.364;-1.480;2023-03-20T04:40:10;4.43;;;2.30;;
21258;SDS011;10787;53.364;-1.480;2023-03-20T04:42:55;5.10;;;2.10;;
21258;SDS011;10787;53.364;-1.480;2023-03-20T04:45:39;5.57;;;2.40;;
21258;SDS011;10787;53.364;-1.480;2023-03-20T04:48:24;6.87;;;2.40;;
21258;SDS011;10787;53.364;-1.480;2023-03-20T04:51:10;5.63;;;2.57;;
21258;SDS011;10787;53.364;-1.480;2023-03-20T04:53:54;5.77;;;3.00;;
21258;SDS011;10787;53.364;-1.480;2023-03-20T04:56:38;5.77;;;2.57;;
21258;SDS011;10787;53.364;-1.480;2023-03-20T04:59:23;6.93;;;3.30;;
21258;SDS011;10787;53.364;-1.480;2023-03-20T05:02:07;6.23;;;3.20;;
21258;SDS011;10787;53.364;-1.480;2023-03-20T05:04:52;8.33;;;3.17;;
21258;SDS011;10787;53.364;-1.480;2023-03-20T05:07:36;8.50;;;3.73;;
21258;SDS011;10787;53.364;-1.480;2023-03-20T05:10:20;7.77;;;3.70;;
21258;SDS011;10787;53.364;-1.480;2023-03-20T05:13:05;8.80;;;4.13;;
21258;SDS011;10787;53.364;-1.480;2023-03-20T05:15:49;9.57;;;4.40;;
21258;SDS011;10787;53.364;-1.480;2023-03-20T05:18:33;11.40;;;4.60;;
21258;SDS011;10787;53.364;-1.480;2023-03-20T05:21:18;8.27;;;4.40;;
21258;SDS011;10787;53.364;-1.480;2023-03-20T05:24:02;10.17;;;4.90;;
21258;SDS011;10787;53.364;-1.480;2023-03-20T05:26:46;11.37;;;4.80;;
21258;SDS011;10787;53.364;-1.480;2023-03-20T05:29:31;12.27;;;5.27;;
21258;SDS011;10787;53.364;-1.480;2023-03-20T05:32:15;10.80;;;5.50;;
21258;SDS011;10787;53.364;-1.480;2023-03-20T05:35:00;8.70;;;5.60;;
21258;SDS011;10787;53.364;-1.480;2023-03-20T05:37:44;14.27;;;6.57;;
21258;SDS011;10787;53.364;-1.480;2023-03-20T05:40:29;12.30;;;6.27;;
21258;SDS011;10787;53.364;-1.480;2023-03-20T05:43:13;11.93;;;6.37;;
21258;SDS011;10787;53.364;-1.480;2023-03-20T05:45:58;14.87;;;6.70;;
21258;SDS011;10787;53.364;-1.480;2023-03-20T05:48:42;12.10;;;6.40;;
21258;SDS011;10787;53.364;-1.480;2023-03-20T05:51:26;12.67;;;6.53;;
21258;SDS011;10787;53.364;-1.480;2023-03-20T05:54:10;16.70;;;7.13;;
21258;SDS011;10787;53.364;-1.480;2023-03-20T05:56:54;10.10;;;6.27;;
21258;SDS011;10787;53.364;-1.480;2023-03-20T05:59:38;9.67;;;5.97;;
21258;SDS011;10787;53.364;-1.480;2023-03-20T06:02:23;13.13;;;7.00;;
21258;SDS011;10787;53.364;-1.480;2023-03-20T06:05:08;10.47;;;7.00;;
21258;SDS011;10787;53.364;-1.480;2023-03-20T06:07:52;10.57;;;6.40;;
21258;SDS011;10787;53.364;-1.480;2023-03-20T06:10:36;10.53;;;6.43;;
21258;SDS011;10787;53.364;-1.480;2023-03-20T06:13:20;16.53;;;6.90;;
21258;SDS011;10787;53.364;-1.480;2023-03-20T06:16:06;11.17;;;6.30;;
21258;SDS011;10787;53.364;-1.480;2023-03-20T06:18:50;11.27;;;7.00;;
21258;SDS011;10787;53.364;-1.480;2023-03-20T06:21:35;12.03;;;6.40;;
21258;SDS011;10787;53.364;-1.480;2023-03-20T06:24:19;9.87;;;5.97;;
21258;SDS011;10787;53.364;-1.480;2023-03-20T06:27:04;8.97;;;5.90;;
21258;SDS011;10787;53.364;-1.480;2023-03-20T06:29:48;10.43;;;5.47;;
21258;SDS011;10787;53.364;-1.480;2023-03-20T06:32:33;10.37;;;5.33;;
21258;SDS011;10787;53.364;-1.480;2023-03-20T06:35:17;8.90;;;4.50;;
21258;SDS011;10787;53.364;-1.480;2023-03-20T06:38:02;9.77;;;4.77;;
21258;SDS011;10787;53.364;-1.480;2023-03-20T06:40:46;7.20;;;4.47;;
21258;SDS011;10787;53.364;-1.480;2023-03-20T06:43:30;6.60;;;4.10;;
21258;SDS011;10787;53.364;-1.480;2023-03-20T06:46:14;6.83;;;3.97;;
21258;SDS011;10787;53.364;-1.480;2023-03-20T06:48:58;7.53;;;3.97;;
21258;SDS011;10787;53.364;-1.480;2023-03-20T06:51:43;6.30;;;4.13;;
21258;SDS011;10787;53.364;-1.480;2023-03-20T06:54:30;7.07;;;4.20;;
21258;SDS011;10787;53.364;-1.480;2023-03-20T06:57:14;4.77;;;3.63;;
21258;SDS011;10787;53.364;-1.480;2023-03-20T07:00:00;7.10;;;4.30;;
21258;SDS011;10787;53.364;-1.480;2023-03-20T07:02:44;7.80;;;4.03;;
21258;SDS011;10787;53.364;-1.480;2023-03-20T07:05:29;6.90;;;4.40;;
21258;SDS011;10787;53.364;-1.480;2023-03-20T07:08:14;7.60;;;4.33;;
21258;SDS011;10787;53.364;-1.480;2023-03-20T07:10:59;5.50;;;4.10;;
21258;SDS011;10787;53.364;-1.480;2023-03-20T07:13:43;9.10;;;4.50;;
21258;SDS011;10787;53.364;-1.480;2023-03-20T07:16:28;7.27;;;4.50;;
21258;SDS011;10787;53.364;-1.480;2023-03-20T07:19:12;9.67;;;4.60;;
21258;SDS011;10787;53.364;-1.480;2023-03-20T07:21:58;7.10;;;4.20;;
21258;SDS011;10787;53.364;-1.480;2023-03-20T07:24:44;5.73;;;4.10;;
21258;SDS011;10787;53.364;-1.480;2023-03-20T07:27:28;7.40;;;4.23;;
21258;SDS011;10787;53.364;-1.480;2023-03-20T07:30:13;7.47;;;4.13;;
21258;SDS011;10787;53.364;-1.480;2023-03-20T07:32:58;5.63;;;3.90;;
21258;SDS011;10787;53.364;-1.480;2023-03-20T07:35:42;5.43;;;3.90;;
21258;SDS011;10787;53.364;-1.480;2023-03-20T07:38:26;7.03;;;3.97;;
21258;SDS011;10787;53.364;-1.480;2023-03-20T07:41:11;5.67;;;3.70;;
21258;SDS011;10787;53.364;-1.480;2023-03-20T07:43:55;4.73;;;3.40;;
21258;SDS011;10787;53.364;-1.480;2023-03-20T07:46:39;5.60;;;3.30;;
21258;SDS011;10787;53.364;-1.480;2023-03-20T07:49:24;5.53;;;3.53;;
21258;SDS011;10787;53.364;-1.480;2023-03-20T07:52:09;6.83;;;3.23;;
21258;SDS011;10787;53.364;-1.480;2023-03-20T07:54:53;4.50;;;3.20;;
21258;SDS011;10787;53.364;-1.480;2023-03-20T07:57:37;4.77;;;3.10;;
21258;SDS011;10787;53.364;-1.480;2023-03-20T08:00:21;3.87;;;2.87;;
21258;SDS011;10787;53.364;-1.480;2023-03-20T08:03:06;5.70;;;3.43;;
21258;SDS011;10787;53.364;-1.480;2023-03-20T08:05:50;5.63;;;3.20;;
21258;SDS011;10787;53.364;-1.480;2023-03-20T08:08:34;6.10;;;2.80;;
21258;SDS011;10787;53.364;-1.480;2023-03-20T08:11:19;3.87;;;2.60;;
21258;SDS011;10787;53.364;-1.480;2023-03-20T08:14:03;3.73;;;2.63;;
21258;SDS011;10787;53.364;-1.480;2023-03-20T08:16:48;4.07;;;2.30;;
21258;SDS011;10787;53.364;-1.480;2023-03-20T08:19:33;3.70;;;2.10;;
21258;SDS011;10787;53.364;-1.480;2023-03-20T08:22:17;3.00;;;2.17;;
21258;SDS011;10787;53.364;-1.480;2023-03-20T08:25:01;2.80;;;2.00;;
21258;SDS011;10787;53.364;-1.480;2023-03-20T08:27:45;2.60;;;1.80;;
21258;SDS011;10787;53.364;-1.480;2023-03-20T08:30:30;2.50;;;1.80;;
21258;SDS011;10787;53.364;-1.480;2023-03-20T08:33:15;1.93;;;1.60;;
21258;SDS011;10787;53.364;-1.480;2023-03-20T08:36:00;3.33;;;1.80;;
21258;SDS011;10787;53.364;-1.480;2023-03-20T08:38:44;4.97;;;1.80;;
21258;SDS011;10787;53.364;-1.480;2023-03-20T08:41:30;3.13;;;1.80;;
21258;SDS011;10787;53.364;-1.480;2023-03-20T08:44:15;3.53;;;1.80;;
21258;SDS011;10787;53.364;-1.480;2023-03-20T08:46:59;3.47;;;1.73;;
21258;SDS011;10787;53.364;-1.480;2023-03-20T08:49:44;2.90;;;1.70;;
21258;SDS011;10787;53.364;-1.480;2023-03-20T08:52:30;10.03;;;2.83;;
21258;SDS011;10787;53.364;-1.480;2023-03-20T08:55:14;4.20;;;1.67;;
21258;SDS011;10787;53.364;-1.480;2023-03-20T08:57:59;2.80;;;1.50;;
21258;SDS011;10787;53.364;-1.480;2023-03-20T09:00:44;2.23;;;1.60;;
21258;SDS011;10787;53.364;-1.480;2023-03-20T09:03:28;2.53;;;1.60;;
21258;SDS011;10787;53.364;-1.480;2023-03-20T09:06:12;4.40;;;1.50;;
21258;SDS011;10787;53.364;-1.480;2023-03-20T09:08:57;13.90;;;1.90;;
21258;SDS011;10787;53.364;-1.480;2023-03-20T09:11:41;2.43;;;1.50;;
21258;SDS011;10787;53.364;-1.480;2023-03-20T09:14:26;2.30;;;1.40;;
21258;SDS011;10787;53.364;-1.480;2023-03-20T09:17:11;1.73;;;1.23;;
21258;SDS011;10787;53.364;-1.480;2023-03-20T09:19:55;2.47;;;1.20;;
21258;SDS011;10787;53.364;-1.480;2023-03-20T09:22:40;2.70;;;1.10;;
21258;SDS011;10787;53.364;-1.480;2023-03-20T09:25:26;3.10;;;1.40;;
21258;SDS011;10787;53.364;-1.480;2023-03-20T09:28:10;1.53;;;1.30;;
21258;SDS011;10787;53.364;-1.480;2023-03-20T09:30:58;1.40;;;1.20;;
21258;SDS011;10787;53.364;-1.480;2023-03-20T09:33:43;1.70;;;1.40;;
21258;SDS011;10787;53.364;-1.480;2023-03-20T09:36:27;1.87;;;1.10;;
21258;SDS011;10787;53.364;-1.480;2023-03-20T09:39:12;1.53;;;1.30;;
21258;SDS011;10787;53.364;-1.480;2023-03-20T09:41:56;1.93;;;1.50;;
21258;SDS011;10787;53.364;-1.480;2023-03-20T09:51:07;2.53;;;1.53;;
21258;SDS011;10787;53.364;-1.480;2023-03-20T09:54:21;2.03;;;1.37;;
21258;SDS011;10787;53.364;-1.480;2023-03-20T09:57:15;2.07;;;1.50;;
21258;SDS011;10787;53.364;-1.480;2023-03-20T10:00:25;2.77;;;1.30;;
21258;SDS011;10787;53.364;-1.480;2023-03-20T10:03:21;1.93;;;1.23;;
21258;SDS011;10787;53.364;-1.480;2023-03-20T10:06:14;5.27;;;1.67;;
21258;SDS011;10787;53.364;-1.480;2023-03-20T10:09:01;2.73;;;1.53;;
21258;SDS011;10787;53.364;-1.480;2023-03-20T10:15:00;2.20;;;1.50;;
21258;SDS011;10787;53.364;-1.480;2023-03-20T10:21:09;2.23;;;1.90;;
21258;SDS011;10787;53.364;-1.480;2023-03-20T10:24:10;2.80;;;1.90;;
21258;SDS011;10787;53.364;-1.480;2023-03-20T10:27:23;2.70;;;1.80;;
21258;SDS011;10787;53.364;-1.480;2023-03-20T10:36:17;1.80;;;1.50;;
21258;SDS011;10787;53.364;-1.480;2023-03-20T10:39:15;2.20;;;1.10;;
21258;SDS011;10787;53.364;-1.480;2023-03-20T10:42:23;1.60;;;1.20;;
21258;SDS011;10787;53.364;-1.480;2023-03-20T10:45:29;1.20;;;1.00;;
21258;SDS011;10787;53.364;-1.480;2023-03-20T10:48:24;2.80;;;1.30;;
21258;SDS011;10787;53.364;-1.480;2023-03-20T10:51:15;1.97;;;1.10;;
21258;SDS011;10787;53.364;-1.480;2023-03-20T10:54:01;2.80;;;1.13;;
21258;SDS011;10787;53.364;-1.480;2023-03-20T10:56:48;1.45;;;0.90;;
21258;SDS011;10787;53.364;-1.480;2023-03-20T10:59:46;2.60;;;1.00;;
21258;SDS011;10787;53.364;-1.480;2023-03-20T11:02:33;1.23;;;0.90;;
21258;SDS011;10787;53.364;-1.480;2023-03-20T11:05:30;1.08;;;0.93;;
21258;SDS011;10787;53.364;-1.480;2023-03-20T11:08:16;1.02;;;0.85;;
21258;SDS011;10787;53.364;-1.480;2023-03-20T11:11:05;2.17;;;0.90;;
21258;SDS011;10787;53.364;-1.480;2023-03-20T11:13:53;2.15;;;0.95;;
21258;SDS011;10787;53.364;-1.480;2023-03-20T11:16:37;1.40;;;1.25;;
21258;SDS011;10787;53.364;-1.480;2023-03-20T11:19:23;4.30;;;1.75;;
21258;SDS011;10787;53.364;-1.480;2023-03-20T11:22:18;5.65;;;1.50;;
21258;SDS011;10787;53.364;-1.480;2023-03-20T11:25:19;1.80;;;1.20;;
21258;SDS011;10787;53.364;-1.480;2023-03-20T11:31:19;1.70;;;1.40;;
21258;SDS011;10787;53.364;-1.480;2023-03-20T11:34:18;2.53;;;1.30;;
21258;SDS011;10787;53.364;-1.480;2023-03-20T11:37:18;6.05;;;1.60;;
21258;SDS011;10787;53.364;-1.480;2023-03-20T11:45:48;1.60;;;1.45;;
21258;SDS011;10787;53.364;-1.480;2023-03-20T11:48:38;1.58;;;1.40;;
21258;SDS011;10787;53.364;-1.480;2023-03-20T11:51:25;1.65;;;1.45;;
21258;SDS011;10787;53.364;-1.480;2023-03-20T11:54:13;1.98;;;1.42;;
21258;SDS011;10787;53.364;-1.480;2023-03-20T11:57:01;2.85;;;1.42;;
21258;SDS011;10787;53.364;-1.480;2023-03-20T11:59:46;1.75;;;1.50;;
21258;SDS011;10787;53.364;-1.480;2023-03-20T12:02:30;2.80;;;1.63;;
21258;SDS011;10787;53.364;-1.480;2023-03-20T12:05:35;2.50;;;1.65;;
21258;SDS011;10787;53.364;-1.480;2023-03-20T12:08:22;1.75;;;1.52;;
21258;SDS011;10787;53.364;-1.480;2023-03-20T12:11:17;1.73;;;1.48;;
21258;SDS011;10787;53.364;-1.480;2023-03-20T12:14:16;2.08;;;1.75;;
21258;SDS011;10787;53.364;-1.480;2023-03-20T12:17:29;2.75;;;1.58;;
21258;SDS011;10787;53.364;-1.480;2023-03-20T12:23:27;3.03;;;2.30;;
21258;SDS011;10787;53.364;-1.480;2023-03-20T12:32:15;4.68;;;2.42;;
21258;SDS011;10787;53.364;-1.480;2023-03-20T12:35:26;1.60;;;1.50;;
21258;SDS011;10787;53.364;-1.480;2023-03-20T12:38:18;4.43;;;2.05;;
21258;SDS011;10787;53.364;-1.480;2023-03-20T12:41:24;2.05;;;1.40;;
21258;SDS011;10787;53.364;-1.480;2023-03-20T12:50:31;2.50;;;1.17;;
21258;SDS011;10787;53.364;-1.480;2023-03-20T12:59:30;1.40;;;1.20;;
21258;SDS011;10787;53.364;-1.480;2023-03-20T13:02:33;1.40;;;1.20;;
21258;SDS011;10787;53.364;-1.480;2023-03-20T13:14:20;1.75;;;1.10;;
21258;SDS011;10787;53.364;-1.480;2023-03-20T13:17:16;2.20;;;1.10;;
21258;SDS011;10787;53.364;-1.480;2023-03-20T13:20:20;2.65;;;1.50;;
21258;SDS011;10787;53.364;-1.480;2023-03-20T13:23:20;2.33;;;1.20;;
21258;SDS011;10787;53.364;-1.480;2023-03-20T13:35:30;0.85;;;0.50;;
21258;SDS011;10787;53.364;-1.480;2023-03-20T13:41:05;2.35;;;0.90;;
21258;SDS011;10787;53.364;-1.480;2023-03-20T13:44:00;2.08;;;1.77;;
21258;SDS011;10787;53.364;-1.480;2023-03-20T13:49:44;3.33;;;1.80;;
21258;SDS011;10787;53.364;-1.480;2023-03-20T13:52:38;1.73;;;1.00;;
21258;SDS011;10787;53.364;-1.480;2023-03-20T13:55:36;2.55;;;1.25;;
21258;SDS011;10787;53.364;-1.480;2023-03-20T13:58:50;1.10;;;1.00;;
21258;SDS011;10787;53.364;-1.480;2023-03-20T14:04:49;1.42;;;0.90;;
21258;SDS011;10787;53.364;-1.480;2023-03-20T14:07:38;1.63;;;0.88;;
21258;SDS011;10787;53.364;-1.480;2023-03-20T14:10:33;1.10;;;0.75;;
21258;SDS011;10787;53.364;-1.480;2023-03-20T14:13:19;1.15;;;0.65;;
21258;SDS011;10787;53.364;-1.480;2023-03-20T14:16:06;0.90;;;0.70;;
21258;SDS011;10787;53.364;-1.480;2023-03-20T14:22:03;0.90;;;0.70;;
21258;SDS011;10787;53.364;-1.480;2023-03-20T14:24:52;1.05;;;0.70;;
21258;SDS011;10787;53.364;-1.480;2023-03-20T14:31:10;1.17;;;0.63;;
21258;SDS011;10787;53.364;-1.480;2023-03-20T14:34:15;1.05;;;0.55;;
21258;SDS011;10787;53.364;-1.480;2023-03-20T14:37:14;2.38;;;0.68;;
21258;SDS011;10787;53.364;-1.480;2023-03-20T14:40:13;1.00;;;0.70;;
21258;SDS011;10787;53.364;-1.480;2023-03-20T14:43:11;1.40;;;0.50;;
21258;SDS011;10787;53.364;-1.480;2023-03-20T14:46:03;2.30;;;0.50;;
21258;SDS011;10787;53.364;-1.480;2023-03-20T14:49:00;1.70;;;0.60;;
21258;SDS011;10787;53.364;-1.480;2023-03-20T14:58:26;0.98;;;0.40;;
21258;SDS011;10787;53.364;-1.480;2023-03-20T15:01:16;1.98;;;0.50;;
21258;SDS011;10787;53.364;-1.480;2023-03-20T15:04:05;1.33;;;0.60;;
21258;SDS011;10787;53.364;-1.480;2023-03-20T15:07:12;1.58;;;0.68;;
21258;SDS011;10787;53.364;-1.480;2023-03-20T15:09:59;1.50;;;0.40;;
21258;SDS011;10787;53.364;-1.480;2023-03-20T15:12:45;0.90;;;0.50;;
21258;SDS011;10787;53.364;-1.480;2023-03-20T15:15:30;0.80;;;0.50;;
21258;SDS011;10787;53.364;-1.480;2023-03-20T15:18:14;1.02;;;0.60;;
21258;SDS011;10787;53.364;-1.480;2023-03-20T15:20:59;0.73;;;0.50;;
21258;SDS011;10787;53.364;-1.480;2023-03-20T15:23:43;0.70;;;0.60;;
21258;SDS011;10787;53.364;-1.480;2023-03-20T15:26:31;0.85;;;0.63;;
21258;SDS011;10787;53.364;-1.480;2023-03-20T15:29:17;3.03;;;0.50;;
21258;SDS011;10787;53.364;-1.480;2023-03-20T15:32:01;1.02;;;0.70;;
21258;SDS011;10787;53.364;-1.480;2023-03-20T15:34:46;0.70;;;0.50;;
21258;SDS011;10787;53.364;-1.480;2023-03-20T15:37:32;1.70;;;0.80;;
21258;SDS011;10787;53.364;-1.480;2023-03-20T15:40:27;2.33;;;0.90;;
21258;SDS011;10787;53.364;-1.480;2023-03-20T15:46:07;3.28;;;0.60;;
21258;SDS011;10787;53.364;-1.480;2023-03-20T15:48:52;2.67;;;0.65;;
21258;SDS011;10787;53.364;-1.480;2023-03-20T15:51:38;1.48;;;0.70;;
21258;SDS011;10787;53.364;-1.480;2023-03-20T15:54:23;0.93;;;0.60;;
21258;SDS011;10787;53.364;-1.480;2023-03-20T15:57:08;1.58;;;0.60;;
21258;SDS011;10787;53.364;-1.480;2023-03-20T15:59:59;1.05;;;0.60;;
21258;SDS011;10787;53.364;-1.480;2023-03-20T16:02:44;2.33;;;0.60;;
21258;SDS011;10787;53.364;-1.480;2023-03-20T16:05:30;1.70;;;0.50;;
21258;SDS011;10787;53.364;-1.480;2023-03-20T16:08:22;1.08;;;0.60;;
21258;SDS011;10787;53.364;-1.480;2023-03-20T16:11:12;1.08;;;0.60;;
21258;SDS011;10787;53.364;-1.480;2023-03-20T16:13:58;1.40;;;0.60;;
21258;SDS011;10787;53.364;-1.480;2023-03-20T16:16:43;1.65;;;0.82;;
21258;SDS011;10787;53.364;-1.480;2023-03-20T16:19:31;4.07;;;0.60;;
21258;SDS011;10787;53.364;-1.480;2023-03-20T16:22:18;1.20;;;0.80;;
21258;SDS011;10787;53.364;-1.480;2023-03-20T16:25:11;2.05;;;0.68;;
21258;SDS011;10787;53.364;-1.480;2023-03-20T16:27:58;1.77;;;0.70;;
21258;SDS011;10787;53.364;-1.480;2023-03-20T16:30:43;1.25;;;0.68;;
21258;SDS011;10787;53.364;-1.480;2023-03-20T16:33:28;2.85;;;0.60;;
21258;SDS011;10787;53.364;-1.480;2023-03-20T16:36:14;2.80;;;0.80;;
21258;SDS011;10787;53.364;-1.480;2023-03-20T16:39:17;0.95;;;0.80;;
21258;SDS011;10787;53.364;-1.480;2023-03-20T16:44:54;1.65;;;1.15;;
21258;SDS011;10787;53.364;-1.480;2023-03-20T16:47:40;3.67;;;1.00;;
21258;SDS011;10787;53.364;-1.480;2023-03-20T16:50:32;2.08;;;1.00;;
21258;SDS011;10787;53.364;-1.480;2023-03-20T16:53:17;1.23;;;0.90;;
21258;SDS011;10787;53.364;-1.480;2023-03-20T16:56:03;1.88;;;0.82;;
21258;SDS011;10787;53.364;-1.480;2023-03-20T16:58:48;2.67;;;0.88;;
21258;SDS011;10787;53.364;-1.480;2023-03-20T17:01:33;2.65;;;1.10;;
21258;SDS011;10787;53.364;-1.480;2023-03-20T17:04:18;1.50;;;1.10;;
21258;SDS011;10787;53.364;-1.480;2023-03-20T17:07:06;2.10;;;1.52;;
21258;SDS011;10787;53.364;-1.480;2023-03-20T17:12:59;1.80;;;1.10;;
21258;SDS011;10787;53.364;-1.480;2023-03-20T17:15:43;1.80;;;1.10;;
21258;SDS011;10787;53.364;-1.480;2023-03-20T17:18:27;3.80;;;1.10;;
21258;SDS011;10787;53.364;-1.480;2023-03-20T17:21:12;3.35;;;1.23;;
21258;SDS011;10787;53.364;-1.480;2023-03-20T17:23:56;3.40;;;1.15;;
21258;SDS011;10787;53.364;-1.480;2023-03-20T17:26:43;2.75;;;1.58;;
21258;SDS011;10787;53.364;-1.480;2023-03-20T17:29:30;2.58;;;1.20;;
21258;SDS011;10787;53.364;-1.480;2023-03-20T17:32:15;3.00;;;1.50;;
21258;SDS011;10787;53.364;-1.480;2023-03-20T17:35:06;2.78;;;1.20;;
21258;SDS011;10787;53.364;-1.480;2023-03-20T17:37:51;1.85;;;1.13;;
21258;SDS011;10787;53.364;-1.480;2023-03-20T17:40:35;3.13;;;1.50;;
21258;SDS011;10787;53.364;-1.480;2023-03-20T17:43:20;1.95;;;1.30;;
21258;SDS011;10787;53.364;-1.480;2023-03-20T17:46:04;2.92;;;1.27;;
21258;SDS011;10787;53.364;-1.480;2023-03-20T17:48:49;1.88;;;1.45;;
21258;SDS011;10787;53.364;-1.480;2023-03-20T17:51:37;1.92;;;1.50;;
21258;SDS011;10787;53.364;-1.480;2023-03-20T17:54:22;2.22;;;1.30;;
21258;SDS011;10787;53.364;-1.480;2023-03-20T18:00:12;2.90;;;1.33;;
21258;SDS011;10787;53.364;-1.480;2023-03-20T18:03:00;3.08;;;1.80;;
21258;SDS011;10787;53.364;-1.480;2023-03-20T18:05:46;2.38;;;1.50;;
21258;SDS011;10787;53.364;-1.480;2023-03-20T18:08:33;3.30;;;1.35;;
21258;SDS011;10787;53.364;-1.480;2023-03-20T18:11:17;2.70;;;1.50;;
21258;SDS011;10787;53.364;-1.480;2023-03-20T18:14:02;2.38;;;1.55;;
21258;SDS011;10787;53.364;-1.480;2023-03-20T18:16:46;2.40;;;2.00;;
21258;SDS011;10787;53.364;-1.480;2023-03-20T18:19:31;2.80;;;2.10;;
21258;SDS011;10787;53.364;-1.480;2023-03-20T18:22:16;3.72;;;2.47;;
21258;SDS011;10787;53.364;-1.480;2023-03-20T18:25:00;4.05;;;2.08;;
21258;SDS011;10787;53.364;-1.480;2023-03-20T18:27:44;2.60;;;2.00;;
21258;SDS011;10787;53.364;-1.480;2023-03-20T18:30:31;2.58;;;1.90;;
21258;SDS011;10787;53.364;-1.480;2023-03-20T18:33:17;2.65;;;1.92;;
21258;SDS011;10787;53.364;-1.480;2023-03-20T18:36:09;2.30;;;1.80;;
21258;SDS011;10787;53.364;-1.480;2023-03-20T18:38:57;2.77;;;2.23;;
21258;SDS011;10787;53.364;-1.480;2023-03-20T18:41:42;2.50;;;2.00;;
21258;SDS011;10787;53.364;-1.480;2023-03-20T18:44:26;2.13;;;1.90;;
21258;SDS011;10787;53.364;-1.480;2023-03-20T18:47:10;2.57;;;2.30;;
21258;SDS011;10787;53.364;-1.480;2023-03-20T18:49:54;3.33;;;2.60;;
21258;SDS011;10787;53.364;-1.480;2023-03-20T18:52:38;3.05;;;2.70;;
21258;SDS011;10787;53.364;-1.480;2023-03-20T18:55:24;3.80;;;3.30;;